createdAt,value
2019-01-28T00:01:11.783Z,4.13
2019-01-28T00:03:40.731Z,4.83
2019-01-28T00:06:09.893Z,4.50
2019-01-28T00:08:38.877Z,4.43
2019-01-28T00:11:08.052Z,4.40
2019-01-28T00:13:36.922Z,4.70
2019-01-28T00:16:05.916Z,4.33
2019-01-28T00:18:34.891Z,4.17
2019-01-28T00:21:03.769Z,4.10
2019-01-28T00:23:32.830Z,3.80
2019-01-28T00:26:01.692Z,4.00
2019-01-28T00:28:30.722Z,4.33
2019-01-28T00:30:59.779Z,4.00
2019-01-28T00:33:28.724Z,3.53
2019-01-28T00:35:57.961Z,4.97
2019-01-28T00:38:27.609Z,3.67
2019-01-28T00:40:56.522Z,4.80
2019-01-28T00:43:25.400Z,4.47
2019-01-28T00:45:54.399Z,4.00
2019-01-28T00:48:23.349Z,4.77
2019-01-28T00:50:52.322Z,4.70
2019-01-28T00:53:21.242Z,4.50
2019-01-28T00:55:50.146Z,3.90
2019-01-28T00:58:19.145Z,4.10
2019-01-28T01:00:48.133Z,4.50
2019-01-28T01:03:16.997Z,4.50
2019-01-28T01:05:46.044Z,4.67
2019-01-28T01:08:14.991Z,4.27
2019-01-28T01:10:43.905Z,4.73
2019-01-28T01:13:12.864Z,4.37
2019-01-28T01:15:41.701Z,4.43
2019-01-28T01:18:10.598Z,5.07
2019-01-28T01:20:39.470Z,4.73
2019-01-28T01:23:08.414Z,4.97
2019-01-28T01:25:37.297Z,5.30
2019-01-28T01:28:06.182Z,4.73
2019-01-28T01:30:35.082Z,5.17
2019-01-28T01:33:04.031Z,5.00
2019-01-28T01:35:32.911Z,5.20
2019-01-28T01:38:01.858Z,5.03
2019-01-28T01:40:30.768Z,4.90
2019-01-28T01:42:59.725Z,5.27
2019-01-28T01:45:28.663Z,6.33
2019-01-28T01:47:57.508Z,5.83
2019-01-28T01:50:26.407Z,6.10
2019-01-28T01:52:55.272Z,6.40
2019-01-28T01:55:24.240Z,5.93
2019-01-28T01:57:53.053Z,6.17
2019-01-28T02:00:22.088Z,6.20
2019-01-28T02:02:51.051Z,5.90
2019-01-28T02:05:19.927Z,6.37
2019-01-28T02:07:48.818Z,6.60
2019-01-28T02:10:18.060Z,6.33
2019-01-28T02:12:46.993Z,6.17
2019-01-28T02:15:17.886Z,6.27
2019-01-28T02:17:46.926Z,5.93
2019-01-28T02:20:16.232Z,6.50
2019-01-28T02:22:45.093Z,6.67
2019-01-28T02:25:14.678Z,5.57
2019-01-28T02:27:43.555Z,5.77
2019-01-28T02:30:14.624Z,6.47
2019-01-28T02:32:43.507Z,6.27
2019-01-28T02:35:12.916Z,6.47
2019-01-28T02:37:41.845Z,6.27
2019-01-28T02:40:13.356Z,6.40
2019-01-28T02:42:42.574Z,6.47
2019-01-28T02:45:12.464Z,6.60
2019-01-28T02:47:41.410Z,6.07
2019-01-28T02:50:13.113Z,6.40
2019-01-28T02:52:42.167Z,5.67
2019-01-28T02:55:11.176Z,6.23
2019-01-28T02:57:40.080Z,6.80
2019-01-28T03:00:22.940Z,6.50
2019-01-28T03:02:51.875Z,6.17
2019-01-28T03:05:20.943Z,6.67
2019-01-28T03:07:49.850Z,6.17
2019-01-28T03:10:20.874Z,6.27
2019-01-28T03:12:49.912Z,6.97
2019-01-28T03:15:19.312Z,6.77
2019-01-28T03:17:48.280Z,7.00
2019-01-28T03:20:17.436Z,6.47
2019-01-28T03:22:46.442Z,6.97
2019-01-28T03:25:15.953Z,7.27
2019-01-28T03:27:44.810Z,6.97
2019-01-28T03:30:16.281Z,7.03
2019-01-28T03:32:45.382Z,6.53
2019-01-28T03:35:14.632Z,7.77
2019-01-28T03:37:43.571Z,7.60
2019-01-28T03:40:15.100Z,7.27
2019-01-28T03:42:44.043Z,7.70
2019-01-28T03:45:15.094Z,7.87
2019-01-28T03:47:44.128Z,8.23
2019-01-28T03:50:14.371Z,8.77
2019-01-28T03:52:43.446Z,7.87
2019-01-28T03:55:12.382Z,8.53
2019-01-28T03:57:41.327Z,8.67
2019-01-28T04:00:13.572Z,9.00
2019-01-28T04:02:42.528Z,8.90
2019-01-28T04:05:11.707Z,9.33
2019-01-28T04:07:40.682Z,8.50
2019-01-28T04:10:11.963Z,10.00
2019-01-28T04:12:40.843Z,9.47
2019-01-28T04:15:13.303Z,9.10
2019-01-28T04:17:42.246Z,9.63
2019-01-28T04:20:12.554Z,10.97
2019-01-28T04:22:41.529Z,9.90
2019-01-28T04:25:11.164Z,10.43
2019-01-28T04:27:40.091Z,10.60
2019-01-28T04:30:12.781Z,10.70
2019-01-28T04:32:41.834Z,10.50
2019-01-28T04:35:10.849Z,11.60
2019-01-28T04:37:39.775Z,11.13
2019-01-28T04:40:09.215Z,10.73
2019-01-28T04:42:38.158Z,11.93
2019-01-28T04:45:09.564Z,11.60
2019-01-28T04:47:38.443Z,12.13
2019-01-28T04:50:09.542Z,11.47
2019-01-28T04:52:38.463Z,12.33
2019-01-28T04:55:07.999Z,12.53
2019-01-28T04:57:36.978Z,12.43
2019-01-28T05:00:09.454Z,13.10
2019-01-28T05:02:38.392Z,12.33
2019-01-28T05:05:07.973Z,12.43
2019-01-28T05:07:36.885Z,11.27
2019-01-28T05:10:06.482Z,11.97
2019-01-28T05:12:35.239Z,12.13
2019-01-28T05:15:04.974Z,11.73
2019-01-28T05:17:33.793Z,11.13
2019-01-28T05:20:02.755Z,11.60
2019-01-28T05:22:31.785Z,11.63
2019-01-28T05:25:00.673Z,12.20
2019-01-28T05:27:29.531Z,13.70
2019-01-28T05:29:58.403Z,12.37
2019-01-28T05:32:27.259Z,13.23
2019-01-28T05:34:56.190Z,12.73
2019-01-28T05:37:25.088Z,13.07
2019-01-28T05:39:54.035Z,13.47
2019-01-28T05:42:22.937Z,12.80
2019-01-28T05:44:51.831Z,12.70
2019-01-28T05:47:20.812Z,13.47
2019-01-28T05:49:49.687Z,13.10
2019-01-28T05:52:18.708Z,13.40
2019-01-28T05:54:47.589Z,13.77
2019-01-28T05:57:16.672Z,13.43
2019-01-28T05:59:45.620Z,14.13
2019-01-28T06:02:14.735Z,13.70
2019-01-28T06:04:43.611Z,14.00
2019-01-28T06:07:12.495Z,13.97
2019-01-28T06:09:41.363Z,13.03
2019-01-28T06:12:10.281Z,13.63
2019-01-28T06:14:39.151Z,12.77
2019-01-28T06:17:08.075Z,13.07
2019-01-28T06:19:36.977Z,12.87
2019-01-28T06:22:05.963Z,13.77
2019-01-28T06:24:34.888Z,13.93
2019-01-28T06:27:03.883Z,14.07
2019-01-28T06:29:32.879Z,11.80
2019-01-28T06:32:01.770Z,11.37
2019-01-28T06:34:30.740Z,13.07
2019-01-28T06:36:59.638Z,13.30
2019-01-28T06:39:28.591Z,14.00
2019-01-28T06:41:57.506Z,13.40
2019-01-28T06:44:26.385Z,12.70
2019-01-28T06:46:55.305Z,13.80
2019-01-28T06:49:24.203Z,13.40
2019-01-28T06:51:53.094Z,13.77
2019-01-28T06:54:22.062Z,13.57
2019-01-28T06:56:51.140Z,13.57
2019-01-28T06:59:20.108Z,14.03
2019-01-28T07:01:50.292Z,13.50
2019-01-28T07:04:19.294Z,13.47
2019-01-28T07:06:48.187Z,13.50
2019-01-28T07:09:44.125Z,13.93
2019-01-28T07:12:13.083Z,12.87
2019-01-28T07:14:42.055Z,12.57
2019-01-28T07:17:11.029Z,13.97
2019-01-28T07:19:39.832Z,13.33
2019-01-28T07:22:08.780Z,13.20
2019-01-28T07:24:37.682Z,13.07
2019-01-28T07:27:06.593Z,13.23
2019-01-28T07:29:35.609Z,12.80
2019-01-28T07:32:04.973Z,13.10
2019-01-28T07:34:33.946Z,12.73
2019-01-28T07:37:02.912Z,13.33
2019-01-28T07:39:31.909Z,13.80
2019-01-28T07:42:00.930Z,13.10
2019-01-28T07:44:29.949Z,12.87
2019-01-28T07:46:58.883Z,13.37
2019-01-28T07:49:27.796Z,13.30
2019-01-28T07:51:56.778Z,13.13
2019-01-28T07:54:25.793Z,13.07
2019-01-28T07:56:54.723Z,13.47
2019-01-28T07:59:23.628Z,12.90
2019-01-28T08:01:52.662Z,14.07
2019-01-28T08:04:21.549Z,13.00
2019-01-28T08:06:59.220Z,12.30
2019-01-28T08:09:21.338Z,13.17
2019-01-28T08:11:50.238Z,12.53
2019-01-28T08:14:19.252Z,11.80
2019-01-28T08:16:48.154Z,12.47
2019-01-28T08:19:17.194Z,12.77
2019-01-28T08:21:46.189Z,12.80
2019-01-28T08:24:15.242Z,12.60
2019-01-28T08:26:44.158Z,12.97
2019-01-28T08:29:13.104Z,12.73
2019-01-28T08:31:42.043Z,13.67
2019-01-28T08:34:11.024Z,13.47
2019-01-28T08:36:55.359Z,14.13
2019-01-28T08:39:24.347Z,13.40
2019-01-28T08:41:53.317Z,13.07
2019-01-28T08:44:22.219Z,12.93
2019-01-28T08:46:51.282Z,12.07
2019-01-28T08:49:20.389Z,12.43
2019-01-28T08:51:49.267Z,12.50
2019-01-28T08:54:18.189Z,13.03
2019-01-28T08:56:47.208Z,12.80
2019-01-28T08:59:16.128Z,12.27
2019-01-28T09:01:45.029Z,12.23
2019-01-28T09:04:13.924Z,12.23
2019-01-28T09:06:42.868Z,13.17
2019-01-28T09:09:12.120Z,12.33
2019-01-28T09:11:41.170Z,13.67
2019-01-28T09:14:10.199Z,12.40
2019-01-28T09:16:39.356Z,13.00
2019-01-28T09:19:08.342Z,12.03
2019-01-28T09:21:37.296Z,12.47
2019-01-28T09:24:06.534Z,12.17
2019-01-28T09:26:35.419Z,13.20
2019-01-28T09:29:04.434Z,11.93
2019-01-28T09:31:33.467Z,12.37
2019-01-28T09:34:02.529Z,13.03
2019-01-28T09:36:31.451Z,12.83
2019-01-28T09:39:24.631Z,12.47
2019-01-28T09:41:53.513Z,12.10
2019-01-28T09:44:22.601Z,12.10
2019-01-28T09:46:51.491Z,12.57
2019-01-28T09:49:20.426Z,11.50
2019-01-28T09:51:49.360Z,12.40
2019-01-28T09:54:18.409Z,11.67
2019-01-28T09:56:47.410Z,12.00
2019-01-28T09:59:16.414Z,11.50
2019-01-28T10:01:45.403Z,12.10
2019-01-28T10:04:14.404Z,11.87
2019-01-28T10:06:43.367Z,12.20
2019-01-28T10:09:12.386Z,12.53
2019-01-28T10:11:41.311Z,13.17
2019-01-28T10:14:10.288Z,11.80
2019-01-28T10:16:39.262Z,12.47
2019-01-28T10:19:08.216Z,11.33
2019-01-28T10:21:37.095Z,11.43
2019-01-28T10:24:06.420Z,11.80
2019-01-28T10:26:35.425Z,10.97
2019-01-28T10:29:04.373Z,9.93
2019-01-28T10:31:33.358Z,10.70
2019-01-28T10:34:02.301Z,10.63
2019-01-28T10:36:34.210Z,10.90
2019-01-28T10:39:02.317Z,10.27
2019-01-28T10:41:31.288Z,11.13
2019-01-28T10:44:00.296Z,11.17
2019-01-28T10:46:29.245Z,9.70
2019-01-28T10:48:58.307Z,10.10
2019-01-28T10:51:28.388Z,10.67
2019-01-28T10:53:57.421Z,10.70
2019-01-28T10:56:26.389Z,11.30
2019-01-28T10:58:55.553Z,10.73
2019-01-28T11:02:12.836Z,10.50
2019-01-28T11:04:41.749Z,10.17
2019-01-28T11:07:10.713Z,10.93
2019-01-28T11:09:39.820Z,10.93
2019-01-28T11:12:08.853Z,11.03
2019-01-28T11:14:38.107Z,12.10
2019-01-28T11:17:07.686Z,11.47
2019-01-28T11:19:36.673Z,12.37
2019-01-28T11:22:05.796Z,12.00
2019-01-28T11:24:34.865Z,10.47
2019-01-28T11:27:04.024Z,11.00
2019-01-28T11:33:02.113Z,11.50
2019-01-28T11:35:31.102Z,10.93
2019-01-28T11:38:00.010Z,9.73
2019-01-28T11:40:29.101Z,9.40
2019-01-28T11:42:58.408Z,9.80
2019-01-28T11:45:29.799Z,10.87
2019-01-28T11:47:58.903Z,9.90
2019-01-28T11:50:28.269Z,10.07
2019-01-28T11:52:57.179Z,10.27
2019-01-28T11:55:26.184Z,10.07
2019-01-28T11:57:55.170Z,10.47
2019-01-28T12:00:29.213Z,9.60
2019-01-28T12:02:58.194Z,9.63
2019-01-28T12:05:27.289Z,9.60
2019-01-28T12:07:56.260Z,9.60
2019-01-28T12:10:26.015Z,9.97
2019-01-28T12:12:55.019Z,11.70
2019-01-28T12:15:24.038Z,11.40
2019-01-28T12:17:53.011Z,11.37
2019-01-28T12:20:23.804Z,10.70
2019-01-28T12:22:52.602Z,10.57
2019-01-28T12:25:21.928Z,11.00
2019-01-28T12:27:51.005Z,10.13
2019-01-28T12:30:25.197Z,10.57
2019-01-28T12:32:54.378Z,11.87
2019-01-28T12:35:23.362Z,10.97
2019-01-28T12:37:52.341Z,13.03
2019-01-28T12:40:21.388Z,11.77
2019-01-28T12:42:52.516Z,11.50
2019-01-28T12:45:21.496Z,13.83
2019-01-28T12:47:50.653Z,12.37
2019-01-28T12:50:20.123Z,15.83
2019-01-28T12:52:49.305Z,12.73
2019-01-28T12:55:18.894Z,12.20
2019-01-28T12:57:48.017Z,14.20
2019-01-28T13:00:19.546Z,12.83
2019-01-28T13:02:48.645Z,12.53
2019-01-28T13:05:19.283Z,14.33
2019-01-28T13:07:48.186Z,12.97
2019-01-28T13:10:21.689Z,12.33
2019-01-28T13:12:50.684Z,14.30
2019-01-28T13:15:22.192Z,13.63
2019-01-28T13:17:51.859Z,12.93
2019-01-28T13:20:20.851Z,12.77
2019-01-28T13:22:49.750Z,13.70
2019-01-28T13:25:21.398Z,13.03
2019-01-28T13:27:50.303Z,12.20
2019-01-28T13:30:21.535Z,13.03
2019-01-28T13:32:50.861Z,11.93
2019-01-28T13:35:19.946Z,13.43
2019-01-28T13:37:48.851Z,14.73
2019-01-28T13:40:17.976Z,15.07
2019-01-28T13:42:47.069Z,15.10
2019-01-28T13:45:17.911Z,13.87
2019-01-28T13:47:47.560Z,14.13
2019-01-28T13:50:19.344Z,13.13
2019-01-28T13:52:49.335Z,14.07
2019-01-28T13:55:19.187Z,14.00
2019-01-28T13:57:48.354Z,14.73
2019-01-28T14:00:19.900Z,13.77
2019-01-28T14:02:49.398Z,13.20
2019-01-28T14:05:18.723Z,14.27
2019-01-28T14:11:16.503Z,17.97
2019-01-28T14:13:45.405Z,14.67
2019-01-28T14:16:14.381Z,14.37
2019-01-28T14:18:43.376Z,14.87
2019-01-28T14:21:12.380Z,16.20
2019-01-28T14:23:41.337Z,17.77
2019-01-28T14:26:10.313Z,16.57
2019-01-28T14:32:07.458Z,16.67
2019-01-28T14:34:36.416Z,15.57
2019-01-28T14:37:05.542Z,16.17
2019-01-28T14:39:34.428Z,16.33
2019-01-28T14:42:03.505Z,16.53
2019-01-28T14:44:32.384Z,17.50
2019-01-28T14:47:01.376Z,16.33
2019-01-28T14:49:32.387Z,16.23
2019-01-28T14:52:00.942Z,17.27
2019-01-28T14:54:29.916Z,16.70
2019-01-28T14:56:58.925Z,16.83
2019-01-28T14:59:27.933Z,17.10
2019-01-28T15:01:56.890Z,17.30
2019-01-28T15:04:25.858Z,17.70
2019-01-28T15:06:54.797Z,17.07
2019-01-28T15:09:23.790Z,18.93
2019-01-28T15:11:54.420Z,17.33
2019-01-28T15:14:23.453Z,17.63
2019-01-28T15:16:52.421Z,18.00
2019-01-28T15:19:21.441Z,18.17
2019-01-28T15:21:50.378Z,17.90
2019-01-28T15:24:20.388Z,17.77
2019-01-28T15:26:50.902Z,18.33
2019-01-28T15:29:20.463Z,18.27
2019-01-28T15:31:49.340Z,18.07
2019-01-28T15:34:18.329Z,16.60
2019-01-28T15:36:47.322Z,18.23
2019-01-28T15:39:16.353Z,17.17
2019-01-28T15:41:45.359Z,18.17
2019-01-28T15:44:14.391Z,17.87
2019-01-28T15:46:43.398Z,17.83
2019-01-28T15:49:12.338Z,18.70
2019-01-28T15:51:41.292Z,18.70
2019-01-28T15:54:10.306Z,19.20
2019-01-28T15:56:39.294Z,19.10
2019-01-28T15:59:08.309Z,18.67
2019-01-28T16:01:37.205Z,19.43
2019-01-28T16:04:06.218Z,18.37
2019-01-28T16:06:35.129Z,17.87
2019-01-28T16:09:06.053Z,16.30
2019-01-28T16:11:35.050Z,14.67
2019-01-28T16:14:04.069Z,14.30
2019-01-28T16:16:33.115Z,15.00
2019-01-28T16:19:02.301Z,13.07
2019-01-28T16:21:31.458Z,11.80
2019-01-28T16:24:00.651Z,12.27
2019-01-28T16:26:30.410Z,14.23
2019-01-28T16:28:59.820Z,13.97
2019-01-28T16:31:30.079Z,13.70
2019-01-28T16:33:59.066Z,14.77
2019-01-28T16:36:28.029Z,14.67
2019-01-28T16:38:56.925Z,16.10
2019-01-28T16:41:26.029Z,18.87
2019-01-28T16:43:55.064Z,17.93
2019-01-28T16:46:24.066Z,19.00
2019-01-28T16:48:53.157Z,19.73
2019-01-28T16:51:22.508Z,19.90
2019-01-28T16:53:51.516Z,20.93
2019-01-28T16:56:20.574Z,21.23
2019-01-28T16:58:49.506Z,20.90
2019-01-28T17:01:18.728Z,22.50
2019-01-28T17:03:47.799Z,22.00
2019-01-28T17:06:16.787Z,23.50
2019-01-28T17:08:45.765Z,23.53
2019-01-28T17:11:14.782Z,22.63
2019-01-28T17:13:43.602Z,17.47
2019-01-28T17:16:12.586Z,13.10
2019-01-28T17:18:41.504Z,11.57
2019-01-28T17:21:10.524Z,9.70
2019-01-28T17:23:39.483Z,8.77
2019-01-28T17:26:08.545Z,7.73
2019-01-28T17:28:37.534Z,6.90
2019-01-28T17:31:07.984Z,6.23
2019-01-28T17:33:39.144Z,5.90
2019-01-28T17:36:08.299Z,5.37
2019-01-28T17:38:37.450Z,5.03
2019-01-28T17:41:06.523Z,5.50
2019-01-28T17:43:35.818Z,5.27
2019-01-28T17:46:04.959Z,5.10
2019-01-28T17:48:34.258Z,5.97
2019-01-28T17:51:51.505Z,5.70
2019-01-28T17:54:20.551Z,5.37
2019-01-28T17:57:07.576Z,6.20
2019-01-28T17:59:36.957Z,5.40
2019-01-28T18:02:06.289Z,5.47
2019-01-28T18:04:35.249Z,5.10
2019-01-28T18:07:04.252Z,5.17
2019-01-28T18:09:33.667Z,5.87
2019-01-28T18:12:02.755Z,5.37
2019-01-28T18:14:31.836Z,8.17
2019-01-28T18:17:00.830Z,5.27
2019-01-28T18:19:29.910Z,4.30
2019-01-28T18:21:58.850Z,4.57
2019-01-28T18:24:27.898Z,4.80
2019-01-28T18:26:57.150Z,5.67
2019-01-28T18:29:26.611Z,4.73
2019-01-28T18:31:56.565Z,4.07
2019-01-28T18:34:26.206Z,3.80
2019-01-28T18:36:55.198Z,4.10
2019-01-28T18:39:24.482Z,4.57
2019-01-28T18:42:12.451Z,4.23
2019-01-28T18:45:00.412Z,4.73
2019-01-28T18:47:48.623Z,4.10
2019-01-28T18:50:59.748Z,4.80
2019-01-28T18:53:48.686Z,4.87
2019-01-28T18:56:36.662Z,5.80
2019-01-28T18:59:05.582Z,4.90
2019-01-28T19:01:53.555Z,4.53
2019-01-28T19:04:41.720Z,4.30
2019-01-28T19:07:50.328Z,5.53
2019-01-28T19:10:38.287Z,4.60
2019-01-28T19:13:26.249Z,4.53
2019-01-28T19:16:14.156Z,4.47
2019-01-28T19:18:50.149Z,5.63
2019-01-28T19:21:57.197Z,5.60
2019-01-28T19:24:45.362Z,4.83
2019-01-28T19:27:33.546Z,4.00
2019-01-28T19:30:02.690Z,4.37
2019-01-28T19:32:50.877Z,4.87
2019-01-28T19:35:19.981Z,4.80
2019-01-28T19:37:48.914Z,5.93
2019-01-28T19:40:17.847Z,4.97
2019-01-28T19:42:47.592Z,5.00
2019-01-28T19:45:19.712Z,5.57
2019-01-28T19:47:48.795Z,5.20
2019-01-28T19:50:20.203Z,4.80
2019-01-28T19:52:49.222Z,5.00
2019-01-28T19:55:18.333Z,5.57
2019-01-28T19:57:47.357Z,5.60
2019-01-28T20:00:27.227Z,6.00
2019-01-28T20:02:58.284Z,5.77
2019-01-28T20:05:27.500Z,6.20
2019-01-28T20:07:56.585Z,6.67
2019-01-28T20:10:25.537Z,5.93
2019-01-28T20:12:54.516Z,6.67
2019-01-28T20:15:23.752Z,6.17
2019-01-28T20:17:52.686Z,6.47
2019-01-28T20:20:21.696Z,6.00
2019-01-28T20:22:50.703Z,5.80
2019-01-28T20:25:20.072Z,5.97
2019-01-28T20:27:49.122Z,5.73
2019-01-28T20:30:20.884Z,5.13
2019-01-28T20:32:49.920Z,6.27
2019-01-28T20:35:19.144Z,5.63
2019-01-28T20:37:48.195Z,5.30
2019-01-28T20:40:17.468Z,5.00
2019-01-28T20:42:46.596Z,5.97
2019-01-28T20:45:17.514Z,5.27
2019-01-28T20:47:46.498Z,5.73
2019-01-28T20:50:18.152Z,5.47
2019-01-28T20:52:47.179Z,5.90
2019-01-28T20:55:16.294Z,5.30
2019-01-28T20:57:45.706Z,5.43
2019-01-28T21:00:19.862Z,5.23
2019-01-28T21:02:48.946Z,5.23
2019-01-28T21:05:18.940Z,4.93
2019-01-28T21:07:48.273Z,5.70
2019-01-28T21:10:19.452Z,5.33
2019-01-28T21:12:48.706Z,4.87
2019-01-28T21:15:18.166Z,5.57
2019-01-28T21:17:47.587Z,5.17
2019-01-28T21:20:18.029Z,4.97
2019-01-28T21:22:47.585Z,5.67
2019-01-28T21:25:21.659Z,5.33
2019-01-28T21:27:50.951Z,4.90
2019-01-28T21:30:25.325Z,5.10
2019-01-28T21:32:54.309Z,5.17
2019-01-28T21:35:46.857Z,5.60
2019-01-28T21:38:20.096Z,4.93
2019-01-28T21:40:49.155Z,4.90
2019-01-28T21:43:18.192Z,5.10
2019-01-28T21:45:47.306Z,4.60
2019-01-28T21:48:16.452Z,4.97
2019-01-28T21:50:45.404Z,5.57
2019-01-28T21:53:14.418Z,4.83
2019-01-28T21:55:43.590Z,5.10
2019-01-28T21:58:12.622Z,5.17
2019-01-28T22:00:41.853Z,5.20
2019-01-28T22:03:10.896Z,4.73
2019-01-28T22:05:40.032Z,4.90
2019-01-28T22:08:09.241Z,4.77
2019-01-28T22:10:40.001Z,5.03
2019-01-28T22:13:09.033Z,4.57
2019-01-28T22:15:38.266Z,5.60
2019-01-28T22:18:07.343Z,4.50
2019-01-28T22:20:36.382Z,5.20
2019-01-28T22:23:05.765Z,4.73
2019-01-28T22:25:35.146Z,4.97
2019-01-28T22:28:04.568Z,4.60
2019-01-28T22:30:33.971Z,4.47
2019-01-28T22:33:03.610Z,4.77
2019-01-28T22:35:32.633Z,4.10
2019-01-28T22:38:13.977Z,5.13
2019-01-28T22:40:42.964Z,4.33
2019-01-28T22:43:11.982Z,4.20
2019-01-28T22:45:40.981Z,4.37
2019-01-28T22:48:09.994Z,5.00
2019-01-28T22:50:39.082Z,4.03
2019-01-28T22:53:08.057Z,4.97
2019-01-28T22:55:37.052Z,4.40
2019-01-28T22:58:06.090Z,4.40
2019-01-28T23:00:51.484Z,4.77
2019-01-28T23:12:41.250Z,4.33
2019-01-28T23:15:10.704Z,4.10
2019-01-28T23:17:40.123Z,3.97
2019-01-28T23:20:09.617Z,4.97
2019-01-28T23:22:38.968Z,4.17
2019-01-28T23:25:08.191Z,4.30
2019-01-28T23:27:37.564Z,4.30
2019-01-28T23:30:07.786Z,4.17
2019-01-28T23:32:37.019Z,4.00
2019-01-28T23:35:07.301Z,4.50
2019-01-28T23:37:36.671Z,4.37
2019-01-28T23:40:06.603Z,4.37
2019-01-28T23:42:37.717Z,4.77
2019-01-28T23:45:27.537Z,4.17
2019-01-28T23:47:56.750Z,4.40
2019-01-28T23:50:25.987Z,4.33
2019-01-28T23:52:55.274Z,4.97
2019-01-28T23:55:24.520Z,5.00
2019-01-28T23:57:56.802Z,4.33
